createdAt,value
2018-04-08T00:00:06.601Z,14.6
2018-04-08T00:00:47.041Z,14.56
2018-04-08T00:01:27.469Z,14.56
2018-04-08T00:02:07.866Z,14.6
2018-04-08T00:02:48.277Z,14.67
2018-04-08T00:03:28.684Z,14.6
2018-04-08T00:05:08.863Z,14.61
2018-04-08T00:05:55.271Z,14.53
2018-04-08T00:06:34.871Z,14.61
2018-04-08T00:07:15.306Z,14.49
2018-04-08T00:07:55.707Z,14.52
2018-04-08T00:08:36.157Z,14.44
2018-04-08T00:09:16.686Z,14.46
2018-04-08T00:09:57.050Z,14.35
2018-04-08T00:10:37.513Z,14.26
2018-04-08T00:11:17.823Z,14.27
2018-04-08T00:11:58.238Z,14.27
2018-04-08T00:12:38.685Z,14.17
2018-04-08T00:13:19.097Z,14.26
2018-04-08T00:13:59.467Z,14.17
2018-04-08T00:14:39.869Z,14.19
2018-04-08T00:15:20.278Z,14.2
2018-04-08T00:16:00.682Z,14.17
2018-04-08T00:16:41.123Z,14.11
2018-04-08T00:17:21.491Z,14.16
2018-04-08T00:18:01.919Z,14.11
2018-04-08T00:19:46.794Z,14.13
2018-04-08T00:20:36.892Z,14.19
2018-04-08T00:21:20.923Z,14.17
2018-04-08T00:23:27.664Z,14.17
2018-04-08T00:24:14.699Z,14.26
2018-04-08T00:24:59.557Z,14.17
2018-04-08T00:25:39.987Z,14.26
2018-04-08T00:26:20.460Z,14.3
2018-04-08T00:27:00.848Z,14.17
2018-04-08T00:27:41.261Z,14.26
2018-04-08T00:28:21.658Z,14.29
2018-04-08T00:29:02.061Z,14.3
2018-04-08T00:29:42.516Z,14.2
2018-04-08T00:30:22.897Z,14.27
2018-04-08T00:31:03.331Z,14.26
2018-04-08T00:31:43.702Z,14.21
2018-04-08T00:32:24.142Z,14.27
2018-04-08T00:33:04.562Z,14.17
2018-04-08T00:33:44.946Z,14.24
2018-04-08T00:34:25.344Z,14.27
2018-04-08T00:35:05.750Z,14.3
2018-04-08T00:35:46.237Z,14.27
2018-04-08T00:37:28.107Z,14.34
2018-04-08T00:39:25.069Z,14.35
2018-04-08T00:40:16.835Z,14.35
2018-04-08T00:41:04.840Z,14.36
2018-04-08T00:41:43.806Z,14.39
2018-04-08T00:42:24.223Z,14.34
2018-04-08T00:43:04.608Z,14.31
2018-04-08T00:43:44.993Z,14.3
2018-04-08T00:44:25.404Z,14.35
2018-04-08T00:45:05.800Z,14.31
2018-04-08T00:45:46.217Z,14.38
2018-04-08T00:46:26.640Z,14.3
2018-04-08T00:47:07.028Z,14.23
2018-04-08T00:47:47.443Z,14.23
2018-04-08T00:48:27.833Z,14.19
2018-04-08T00:49:08.323Z,14.27
2018-04-08T00:49:48.633Z,14.27
2018-04-08T00:50:29.044Z,14.29
2018-04-08T00:51:09.458Z,14.3
2018-04-08T00:51:49.881Z,14.26
2018-04-08T00:52:30.262Z,14.23
2018-04-08T00:53:10.678Z,14.23
2018-04-08T00:53:51.133Z,14.24
2018-04-08T00:54:31.541Z,14.19
2018-04-08T00:55:11.911Z,14.13
2018-04-08T00:55:52.328Z,14.12
2018-04-08T00:56:32.733Z,14.12
2018-04-08T00:57:13.195Z,14.12
2018-04-08T00:57:53.547Z,14.13
2018-04-08T00:58:34.028Z,14.16
2018-04-08T01:00:51.298Z,14.06
2018-04-08T01:02:49.054Z,14.04
2018-04-08T01:04:46.419Z,13.91
2018-04-08T01:05:27.295Z,13.88
2018-04-08T01:07:27.357Z,13.98
2018-04-08T01:08:10.486Z,13.98
2018-04-08T01:08:50.004Z,13.94
2018-04-08T01:09:30.441Z,13.91
2018-04-08T01:10:10.883Z,14.02
2018-04-08T01:10:51.310Z,14.01
2018-04-08T01:11:31.689Z,14.08
2018-04-08T01:12:12.103Z,13.98
2018-04-08T01:12:52.529Z,14.04
2018-04-08T01:13:32.963Z,14.05
2018-04-08T01:14:13.408Z,14.13
2018-04-08T01:14:53.784Z,14.09
2018-04-08T01:15:34.224Z,14.13
2018-04-08T01:16:14.623Z,14.09
2018-04-08T01:16:55.017Z,14.12
2018-04-08T01:17:35.404Z,14.13
2018-04-08T01:18:15.838Z,14.11
2018-04-08T01:18:56.262Z,14.11
2018-04-08T01:19:36.634Z,14.19
2018-04-08T01:20:17.040Z,14.12
2018-04-08T01:20:57.437Z,14.2
2018-04-08T01:21:37.908Z,14.19
2018-04-08T01:22:18.252Z,14.13
2018-04-08T01:22:58.643Z,14.13
2018-04-08T01:23:39.076Z,14.12
2018-04-08T01:24:19.511Z,14.16
2018-04-08T01:24:59.929Z,14.11
2018-04-08T01:25:40.359Z,14.02
2018-04-08T01:26:20.783Z,13.96
2018-04-08T01:27:01.211Z,13.99
2018-04-08T01:27:41.644Z,13.93
2018-04-08T01:28:22.054Z,13.98
2018-04-08T01:29:02.468Z,13.91
2018-04-08T01:29:42.871Z,13.87
2018-04-08T01:30:23.269Z,13.87
2018-04-08T01:31:03.705Z,13.9
2018-04-08T01:31:44.118Z,13.79
2018-04-08T01:32:24.549Z,13.66
2018-04-08T01:33:04.964Z,13.68
2018-04-08T01:33:45.406Z,13.69
2018-04-08T01:34:25.808Z,13.63
2018-04-08T01:35:06.225Z,13.69
2018-04-08T01:35:46.649Z,13.63
2018-04-08T01:36:27.063Z,13.55
2018-04-08T01:37:07.475Z,13.68
2018-04-08T01:37:47.896Z,13.72
2018-04-08T01:38:28.331Z,13.59
2018-04-08T01:39:08.771Z,13.55
2018-04-08T01:39:49.208Z,13.53
2018-04-08T01:40:29.644Z,13.51
2018-04-08T01:41:10.126Z,13.47
2018-04-08T01:41:50.490Z,13.47
2018-04-08T01:42:30.915Z,13.48
2018-04-08T01:43:11.333Z,13.47
2018-04-08T01:43:51.766Z,13.47
2018-04-08T01:44:32.214Z,13.46
2018-04-08T01:45:12.651Z,13.43
2018-04-08T01:45:53.023Z,13.41
2018-04-08T01:46:33.464Z,13.36
2018-04-08T01:47:13.872Z,13.43
2018-04-08T01:47:54.300Z,13.31
2018-04-08T01:48:34.728Z,13.27
2018-04-08T01:49:15.141Z,13.28
2018-04-08T01:49:55.529Z,13.24
2018-04-08T01:50:35.934Z,13.38
2018-04-08T01:51:16.358Z,13.35
2018-04-08T01:51:56.796Z,13.35
2018-04-08T01:52:37.222Z,13.36
2018-04-08T01:53:17.637Z,13.38
2018-04-08T01:53:58.037Z,13.36
2018-04-08T01:56:14.787Z,13.39
2018-04-08T01:56:58.540Z,13.36
2018-04-08T01:57:37.949Z,13.22
2018-04-08T01:58:18.344Z,13.29
2018-04-08T01:58:58.800Z,13.28
2018-04-08T01:59:39.187Z,13.27
2018-04-08T02:00:19.592Z,13.24
2018-04-08T02:00:59.958Z,13.24
2018-04-08T02:01:40.376Z,13.27
2018-04-08T02:03:22.200Z,13.28
2018-04-08T02:04:04.185Z,13.31
2018-04-08T02:04:44.580Z,13.29
2018-04-08T02:05:24.981Z,13.27
2018-04-08T02:06:05.378Z,13.29
2018-04-08T02:06:45.821Z,13.25
2018-04-08T02:07:26.195Z,13.29
2018-04-08T02:08:06.625Z,13.32
2018-04-08T02:08:46.993Z,13.36
2018-04-08T02:09:27.429Z,13.36
2018-04-08T02:10:07.829Z,13.39
2018-04-08T02:10:48.239Z,13.39
2018-04-08T02:11:28.653Z,13.38
2018-04-08T02:12:09.058Z,13.29
2018-04-08T02:12:49.451Z,13.28
2018-04-08T02:13:29.863Z,13.29
2018-04-08T02:14:10.269Z,13.38
2018-04-08T02:14:50.669Z,13.31
2018-04-08T02:15:31.116Z,13.39
2018-04-08T02:16:11.655Z,13.36
2018-04-08T02:16:52.043Z,13.39
2018-04-08T02:17:32.412Z,13.32
2018-04-08T02:18:13.725Z,13.32
2018-04-08T02:18:54.089Z,13.38
2018-04-08T02:19:34.639Z,13.22
2018-04-08T02:20:14.988Z,13.22
2018-04-08T02:20:55.403Z,13.17
2018-04-08T02:21:35.929Z,13.21
2018-04-08T02:22:16.354Z,13.28
2018-04-08T02:24:09.810Z,13.38
2018-04-08T02:26:14.061Z,13.43
2018-04-08T02:30:25.593Z,13.5
2018-04-08T02:31:16.197Z,13.48
2018-04-08T02:33:08.089Z,13.47
2018-04-08T02:33:50.989Z,13.57
2018-04-08T02:34:31.038Z,13.57
2018-04-08T02:35:11.460Z,13.55
2018-04-08T02:35:51.849Z,13.51
2018-04-08T02:36:32.201Z,13.65
2018-04-08T02:37:12.657Z,13.61
2018-04-08T02:37:53.024Z,13.61
2018-04-08T02:38:33.418Z,13.61
2018-04-08T02:39:13.833Z,13.61
2018-04-08T02:39:54.252Z,13.57
2018-04-08T02:40:34.773Z,13.53
2018-04-08T02:41:15.174Z,13.57
2018-04-08T02:41:55.563Z,13.57
2018-04-08T02:43:37.490Z,13.61
2018-04-08T02:44:25.980Z,13.61
2018-04-08T02:45:07.662Z,13.61
2018-04-08T02:45:48.143Z,13.48
2018-04-08T02:46:28.571Z,13.5
2018-04-08T02:47:08.992Z,13.5
2018-04-08T02:47:49.386Z,13.55
2018-04-08T02:48:29.813Z,13.48
2018-04-08T02:49:10.195Z,13.57
2018-04-08T02:49:50.572Z,13.53
2018-04-08T02:50:31.012Z,13.48
2018-04-08T02:51:11.440Z,13.46
2018-04-08T02:51:51.834Z,13.48
2018-04-08T02:52:32.236Z,13.46
2018-04-08T02:53:12.634Z,13.47
2018-04-08T02:53:53.785Z,13.51
2018-04-08T02:54:34.101Z,13.53
2018-04-08T02:55:14.497Z,13.5
2018-04-08T02:55:54.900Z,13.46
2018-04-08T02:56:35.332Z,13.32
2018-04-08T02:57:15.761Z,13.32
2018-04-08T02:57:56.178Z,13.32
2018-04-08T02:58:36.586Z,13.32
2018-04-08T02:59:16.933Z,13.31
2018-04-08T02:59:57.384Z,13.46
2018-04-08T03:00:37.852Z,13.44
2018-04-08T03:01:18.231Z,13.5
2018-04-08T03:01:58.591Z,13.48
2018-04-08T03:02:39.086Z,13.47
2018-04-08T03:03:19.455Z,13.5
2018-04-08T03:04:00.646Z,13.46
2018-04-08T03:04:41.085Z,13.43
2018-04-08T03:05:21.497Z,13.53
2018-04-08T03:06:01.935Z,13.48
2018-04-08T03:06:42.359Z,13.59
2018-04-08T03:07:22.739Z,13.55
2018-04-08T03:08:03.302Z,13.62
2018-04-08T03:08:43.655Z,13.46
2018-04-08T03:09:24.067Z,13.55
2018-04-08T03:10:04.475Z,13.57
2018-04-08T03:10:44.872Z,13.54
2018-04-08T03:11:25.318Z,13.46
2018-04-08T03:12:05.913Z,13.51
2018-04-08T03:12:46.220Z,13.51
2018-04-08T03:13:26.684Z,13.54
2018-04-08T03:14:07.059Z,13.65
2018-04-08T03:14:47.420Z,13.51
2018-04-08T03:15:27.844Z,13.5
2018-04-08T03:16:08.220Z,13.48
2018-04-08T03:16:48.613Z,13.57
2018-04-08T03:17:29.043Z,13.55
2018-04-08T03:18:09.425Z,13.57
2018-04-08T03:18:49.858Z,13.61
2018-04-08T03:19:30.308Z,13.54
2018-04-08T03:20:10.705Z,13.59
2018-04-08T03:20:51.094Z,13.62
2018-04-08T03:21:31.504Z,13.69
2018-04-08T03:22:11.916Z,13.57
2018-04-08T03:22:52.329Z,13.61
2018-04-08T03:23:32.733Z,13.62
2018-04-08T03:24:13.135Z,13.59
2018-04-08T03:24:53.539Z,13.68
2018-04-08T03:25:33.945Z,13.71
2018-04-08T03:26:14.340Z,13.69
2018-04-08T03:26:54.745Z,13.65
2018-04-08T03:29:08.418Z,13.59
2018-04-08T03:29:52.280Z,13.57
2018-04-08T03:30:32.676Z,13.57
2018-04-08T03:31:13.087Z,13.59
2018-04-08T03:31:53.513Z,13.59
2018-04-08T03:32:33.966Z,13.66
2018-04-08T03:33:14.328Z,13.59
2018-04-08T03:33:54.758Z,13.57
2018-04-08T03:34:35.174Z,13.55
2018-04-08T03:35:15.611Z,13.59
2018-04-08T03:35:56.046Z,13.61
2018-04-08T03:36:36.447Z,13.63
2018-04-08T03:37:16.848Z,13.57
2018-04-08T03:37:57.254Z,13.65
2018-04-08T03:38:37.724Z,13.59
2018-04-08T03:39:18.075Z,13.59
2018-04-08T03:39:58.458Z,13.57
2018-04-08T03:40:38.853Z,13.59
2018-04-08T03:41:19.278Z,13.57
2018-04-08T03:43:07.014Z,13.57
2018-04-08T03:43:47.450Z,13.71
2018-04-08T03:44:27.891Z,13.68
2018-04-08T03:45:08.287Z,13.65
2018-04-08T03:45:48.707Z,13.65
2018-04-08T03:46:29.149Z,13.54
2018-04-08T03:47:09.551Z,13.71
2018-04-08T03:47:49.959Z,13.66
2018-04-08T03:48:30.395Z,13.54
2018-04-08T03:49:10.805Z,13.54
2018-04-08T03:49:51.211Z,13.63
2018-04-08T03:50:31.664Z,13.63
2018-04-08T03:51:12.077Z,13.63
2018-04-08T03:51:52.471Z,13.65
2018-04-08T03:52:32.894Z,13.62
2018-04-08T03:53:13.334Z,13.69
2018-04-08T03:53:53.706Z,13.75
2018-04-08T03:54:34.112Z,13.79
2018-04-08T03:55:14.569Z,13.76
2018-04-08T03:55:54.923Z,13.71
2018-04-08T03:56:35.346Z,13.73
2018-04-08T03:57:15.745Z,13.63
2018-04-08T03:57:56.196Z,13.62
2018-04-08T03:58:36.613Z,13.63
2018-04-08T03:59:17.019Z,13.66
2018-04-08T03:59:57.470Z,13.69
2018-04-08T04:00:37.898Z,13.65
2018-04-08T04:01:18.308Z,13.76
2018-04-08T04:41:14.810Z,12.03
2018-04-08T04:41:54.238Z,12.05
2018-04-08T04:42:34.656Z,12.05
2018-04-08T04:43:15.082Z,12.08
2018-04-08T04:43:55.515Z,11.97
2018-04-08T04:44:35.938Z,11.98
2018-04-08T04:45:16.363Z,11.98
2018-04-08T04:45:56.767Z,12.01
2018-04-08T04:46:37.196Z,11.98
2018-04-08T04:47:17.634Z,12.01
2018-04-08T04:47:58.008Z,11.96
2018-04-08T04:48:38.424Z,11.9
2018-04-08T04:49:18.807Z,12
2018-04-08T04:49:59.210Z,12
2018-04-08T04:50:39.680Z,12.08
2018-04-08T04:52:54.271Z,12.16
2018-04-08T04:53:33.316Z,12.12
2018-04-08T04:54:13.744Z,12.25
2018-04-08T04:54:54.170Z,12.34
2018-04-08T04:55:34.594Z,12.34
2018-04-08T04:56:15.017Z,12.36
2018-04-08T04:56:55.453Z,12.37
2018-04-08T04:57:35.844Z,12.36
2018-04-08T04:58:16.285Z,12.36
2018-04-08T04:58:56.645Z,12.4
2018-04-08T04:59:37.033Z,12.31
2018-04-08T05:00:17.464Z,12.37
2018-04-08T05:00:57.880Z,12.43
2018-04-08T05:01:38.303Z,12.38
2018-04-08T05:02:18.707Z,12.43
2018-04-08T05:02:59.129Z,12.4
2018-04-08T05:03:39.542Z,12.43
2018-04-08T05:04:19.935Z,12.43
2018-04-08T05:05:00.355Z,12.44
2018-04-08T05:05:40.786Z,12.49
2018-04-08T05:06:21.211Z,12.48
2018-04-08T05:07:01.636Z,12.52
2018-04-08T05:07:42.092Z,12.56
2018-04-08T05:09:41.183Z,12.61
2018-04-08T05:10:28.640Z,12.66
2018-04-08T05:11:12.781Z,12.74
2018-04-08T05:11:53.192Z,12.62
2018-04-08T05:12:33.695Z,12.62
2018-04-08T05:13:14.087Z,12.77
2018-04-08T05:13:54.467Z,12.77
2018-04-08T05:14:34.906Z,12.8
2018-04-08T05:15:15.252Z,12.84
2018-04-08T05:15:55.602Z,12.8
2018-04-08T05:16:36.025Z,12.81
2018-04-08T05:17:16.439Z,12.79
2018-04-08T05:17:56.814Z,12.84
2018-04-08T05:18:37.190Z,12.81
2018-04-08T05:19:17.635Z,12.8
2018-04-08T05:19:58.025Z,12.92
2018-04-08T05:20:38.384Z,12.91
2018-04-08T05:21:18.793Z,12.96
2018-04-08T05:21:59.191Z,12.99
2018-04-08T05:22:39.607Z,13.03
2018-04-08T05:23:20.007Z,12.98
2018-04-08T05:24:00.430Z,13.06
2018-04-08T05:24:40.825Z,13.16
2018-04-08T05:25:21.240Z,13.21
2018-04-08T05:26:01.666Z,13.25
2018-04-08T05:26:42.080Z,13.27
2018-04-08T05:27:22.491Z,13.27
2018-04-08T05:28:02.910Z,13.28
2018-04-08T05:28:43.321Z,13.36
2018-04-08T05:29:23.740Z,13.36
2018-04-08T05:30:04.170Z,13.44
2018-04-08T05:30:44.532Z,13.48
2018-04-08T05:31:24.986Z,13.47
2018-04-08T05:32:05.393Z,13.39
2018-04-08T05:32:45.829Z,13.57
2018-04-08T05:33:26.230Z,13.48
2018-04-08T05:34:06.611Z,13.55
2018-04-08T05:34:47.036Z,13.66
2018-04-08T05:35:27.456Z,13.57
2018-04-08T05:36:07.852Z,13.62
2018-04-08T05:38:23.973Z,13.79
2018-04-08T05:39:12.119Z,13.93
2018-04-08T05:39:52.455Z,13.87
2018-04-08T05:40:32.941Z,13.88
2018-04-08T05:41:13.308Z,14.01
2018-04-08T05:41:53.729Z,13.98
2018-04-08T05:42:34.138Z,14.02
2018-04-08T05:43:14.570Z,14.09
2018-04-08T05:43:54.986Z,14.16
2018-04-08T05:44:35.430Z,14.12
2018-04-08T05:45:15.837Z,14.26
2018-04-08T05:45:56.272Z,14.29
2018-04-08T05:46:36.648Z,14.39
2018-04-08T05:47:17.054Z,14.42
2018-04-08T05:47:57.475Z,14.48
2018-04-08T05:48:37.901Z,14.57
2018-04-08T05:49:18.324Z,14.75
2018-04-08T05:49:58.755Z,14.78
2018-04-08T05:50:39.187Z,14.9
2018-04-08T05:51:19.628Z,14.94
2018-04-08T05:52:00.062Z,14.97
2018-04-08T05:52:40.479Z,15.11
2018-04-08T05:53:20.903Z,15.22
2018-04-08T05:54:01.391Z,15.3
2018-04-08T05:54:41.758Z,15.38
2018-04-08T05:55:22.142Z,15.41
2018-04-08T05:56:02.575Z,15.44
2018-04-08T05:56:42.992Z,15.46
2018-04-08T05:57:23.411Z,15.52
2018-04-08T05:58:03.825Z,15.62
2018-04-08T05:58:44.259Z,15.66
2018-04-08T05:59:24.674Z,15.85
2018-04-08T06:00:05.097Z,15.81
2018-04-08T06:00:45.518Z,15.85
2018-04-08T06:01:25.957Z,15.86
2018-04-08T06:02:06.387Z,15.92
2018-04-08T06:02:46.796Z,15.92
2018-04-08T06:03:27.232Z,15.93
2018-04-08T06:04:07.658Z,15.96
2018-04-08T06:04:48.071Z,15.93
2018-04-08T06:05:28.484Z,15.98
2018-04-08T06:06:08.871Z,15.89
2018-04-08T06:06:49.298Z,15.92
2018-04-08T06:07:29.693Z,15.96
2018-04-08T06:08:10.123Z,16.01
2018-04-08T06:08:50.523Z,16.06
2018-04-08T06:09:30.952Z,16.07
2018-04-08T06:10:11.506Z,16.27
2018-04-08T06:10:51.796Z,16.34
2018-04-08T06:11:32.204Z,16.36
2018-04-08T06:12:12.615Z,16.44
2018-04-08T06:12:53.031Z,16.41
2018-04-08T06:13:33.470Z,16.5
2018-04-08T06:14:13.892Z,16.57
2018-04-08T06:14:54.318Z,16.51
2018-04-08T06:15:34.735Z,16.52
2018-04-08T06:16:15.153Z,16.51
2018-04-08T06:16:55.567Z,16.44
2018-04-08T06:17:36.007Z,16.44
2018-04-08T06:18:16.369Z,16.45
2018-04-08T06:18:56.791Z,16.54
2018-04-08T06:19:37.241Z,16.5
2018-04-08T06:20:17.601Z,16.5
2018-04-08T06:20:58.051Z,16.54
2018-04-08T06:21:38.421Z,16.62
2018-04-08T06:22:18.828Z,16.6
2018-04-08T06:22:59.217Z,16.65
2018-04-08T06:23:39.598Z,16.54
2018-04-08T06:24:20.020Z,16.5
2018-04-08T06:25:00.422Z,16.45
2018-04-08T06:25:40.831Z,16.5
2018-04-08T06:26:21.258Z,16.44
2018-04-08T06:27:01.648Z,16.57
2018-04-08T06:27:42.070Z,16.48
2018-04-08T06:28:22.484Z,16.5
2018-04-08T06:29:02.902Z,16.5
2018-04-08T06:29:43.352Z,16.59
2018-04-08T06:30:23.729Z,16.65
2018-04-08T06:31:04.153Z,16.66
2018-04-08T06:31:44.588Z,16.67
2018-04-08T06:32:24.953Z,16.81
2018-04-08T06:33:05.361Z,16.88
2018-04-08T06:33:45.758Z,17.05
2018-04-08T06:34:26.149Z,17.14
2018-04-08T06:35:06.553Z,17.2
2018-04-08T06:35:46.952Z,17.27
2018-04-08T06:36:27.342Z,17.27
2018-04-08T06:37:07.751Z,17.25
2018-04-08T06:37:48.160Z,17.17
2018-04-08T06:38:28.576Z,17.17
2018-04-08T06:39:08.994Z,17.14
2018-04-08T06:39:49.458Z,17.18
2018-04-08T06:40:29.915Z,17.09
2018-04-08T06:41:10.210Z,17.15
2018-04-08T06:41:50.619Z,17.1
2018-04-08T06:42:31.019Z,17.27
2018-04-08T06:43:11.455Z,17.24
2018-04-08T06:43:51.874Z,17.36
2018-04-08T06:44:32.308Z,17.39
2018-04-08T06:45:12.718Z,17.47
2018-04-08T06:45:53.156Z,17.57
2018-04-08T06:46:33.527Z,17.58
2018-04-08T06:47:13.946Z,17.66
2018-04-08T06:47:54.358Z,17.8
2018-04-08T06:48:34.779Z,17.91
2018-04-08T06:49:15.214Z,18.01
2018-04-08T06:49:55.599Z,18.04
2018-04-08T06:50:35.993Z,18.2
2018-04-08T06:51:16.391Z,18.29
2018-04-08T06:51:56.804Z,18.28
2018-04-08T06:52:37.241Z,18.23
2018-04-08T06:53:17.640Z,18.31
2018-04-08T06:53:58.057Z,18.19
2018-04-08T06:54:38.467Z,18.16
2018-04-08T06:55:18.879Z,17.96
2018-04-08T06:55:59.269Z,17.87
2018-04-08T06:56:39.712Z,17.63
2018-04-08T06:57:20.125Z,17.62
2018-04-08T06:59:36.404Z,17.46
2018-04-08T07:00:17.337Z,17.38
2018-04-08T07:00:58.290Z,17.38
2018-04-08T07:01:38.737Z,17.24
2018-04-08T07:02:20.026Z,17.15
2018-04-08T07:03:00.448Z,17.18
2018-04-08T07:03:40.877Z,17.09
2018-04-08T07:04:21.333Z,17.15
2018-04-08T07:05:01.696Z,17.1
2018-04-08T07:05:42.099Z,17.1
2018-04-08T07:07:32.725Z,17.3
2018-04-08T07:08:13.603Z,17.27
2018-04-08T07:08:53.981Z,17.17
2018-04-08T07:09:34.361Z,17.22
2018-04-08T07:10:14.792Z,17.3
2018-04-08T07:10:55.205Z,17.36
2018-04-08T07:11:35.600Z,17.4
2018-04-08T07:12:16.014Z,17.42
2018-04-08T07:12:56.414Z,17.4
2018-04-08T07:13:36.831Z,17.39
2018-04-08T07:14:17.608Z,17.42
2018-04-08T07:14:57.865Z,17.46
2018-04-08T07:15:38.309Z,17.45
2018-04-08T07:16:18.732Z,17.51
2018-04-08T07:16:59.156Z,17.49
2018-04-08T07:17:39.514Z,17.6
2018-04-08T07:18:19.960Z,17.46
2018-04-08T07:19:00.337Z,17.49
2018-04-08T07:19:40.754Z,17.53
2018-04-08T07:20:21.155Z,17.49
2018-04-08T07:21:01.564Z,17.45
2018-04-08T07:21:41.987Z,17.53
2018-04-08T07:22:22.366Z,17.47
2018-04-08T07:23:02.801Z,17.49
2018-04-08T07:23:43.226Z,17.51
2018-04-08T07:24:23.678Z,17.54
2018-04-08T07:25:04.071Z,17.57
2018-04-08T07:25:44.483Z,17.57
2018-04-08T07:26:24.912Z,17.62
2018-04-08T07:27:05.370Z,17.58
2018-04-08T07:27:45.734Z,17.66
2018-04-08T07:28:26.157Z,17.68
2018-04-08T07:30:21.788Z,17.73
2018-04-08T07:31:04.800Z,17.68
2018-04-08T07:31:45.221Z,17.83
2018-04-08T07:32:25.611Z,17.76
2018-04-08T07:33:06.014Z,17.79
2018-04-08T07:33:46.409Z,17.73
2018-04-08T07:34:26.816Z,17.84
2018-04-08T07:35:07.226Z,17.83
2018-04-08T07:35:47.650Z,17.92
2018-04-08T07:36:28.072Z,17.86
2018-04-08T07:37:08.486Z,17.95
2018-04-08T07:37:48.915Z,18.02
2018-04-08T07:38:29.356Z,18.09
2018-04-08T07:40:43.637Z,18.28
2018-04-08T07:41:23.023Z,18.25
2018-04-08T07:42:03.412Z,18.31
2018-04-08T07:42:43.835Z,18.39
2018-04-08T07:44:34.795Z,18.31
2018-04-08T07:45:14.717Z,18.41
2018-04-08T07:45:55.122Z,18.34
2018-04-08T07:46:35.531Z,18.31
2018-04-08T07:47:15.918Z,18.42
2018-04-08T07:47:56.344Z,18.47
2018-04-08T07:48:37.300Z,18.39
2018-04-08T07:49:17.720Z,18.46
2018-04-08T07:49:58.155Z,18.46
2018-04-08T07:50:38.565Z,18.53
2018-04-08T07:51:18.916Z,18.46
2018-04-08T07:51:59.319Z,18.5
2018-04-08T07:52:39.709Z,18.54
2018-04-08T07:53:20.141Z,18.5
2018-04-08T07:54:00.722Z,18.57
2018-04-08T07:54:40.997Z,18.62
2018-04-08T07:55:21.400Z,18.57
2018-04-08T07:56:01.790Z,18.66
2018-04-08T07:56:42.240Z,18.74
2018-04-08T07:57:22.599Z,18.74
2018-04-08T07:58:03.035Z,18.84
2018-04-08T07:58:43.445Z,18.78
2018-04-08T07:59:23.861Z,18.82
2018-04-08T08:00:04.308Z,18.84
2018-04-08T08:00:44.711Z,18.79
2018-04-08T08:01:25.122Z,18.83
2018-04-08T08:02:05.522Z,18.87
2018-04-08T08:02:45.938Z,18.79
2018-04-08T08:03:26.304Z,18.87
2018-04-08T08:04:07.943Z,18.93
2018-04-08T08:04:48.384Z,18.91
2018-04-08T08:05:28.800Z,18.91
2018-04-08T08:06:09.263Z,18.91
2018-04-08T08:06:49.608Z,18.99
2018-04-08T08:07:30.182Z,18.97
2018-04-08T08:08:10.780Z,19.01
2018-04-08T08:08:51.228Z,19.05
2018-04-08T08:09:31.651Z,18.99
2018-04-08T08:10:12.005Z,19.01
2018-04-08T08:10:52.490Z,19.01
2018-04-08T08:11:32.860Z,18.99
2018-04-08T08:12:13.289Z,18.99
2018-04-08T08:12:53.726Z,19.07
2018-04-08T08:13:34.125Z,19.02
2018-04-08T08:15:33.656Z,19.13
2018-04-08T08:20:39.875Z,19.6
2018-04-08T08:24:55.611Z,19.98
2018-04-08T08:25:34.957Z,19.92
2018-04-08T08:26:15.382Z,20.05
2018-04-08T08:26:56.240Z,20.16
2018-04-08T08:27:36.633Z,20.3
2018-04-08T08:28:17.054Z,20.53
2018-04-08T08:28:57.419Z,20.61
2018-04-08T08:29:37.835Z,20.71
2018-04-08T08:30:18.260Z,20.79
2018-04-08T08:30:58.721Z,20.88
2018-04-08T08:31:39.121Z,20.96
2018-04-08T08:32:19.510Z,21.16
2018-04-08T08:32:59.930Z,21.19
2018-04-08T08:33:40.355Z,21.31
2018-04-08T08:34:20.801Z,21.45
2018-04-08T08:35:01.178Z,21.59
2018-04-08T08:35:41.598Z,21.82
2018-04-08T08:36:22.051Z,21.91
2018-04-08T08:37:02.519Z,22.04
2018-04-08T08:37:42.897Z,22.24
2018-04-08T08:38:23.474Z,22.33
2018-04-08T08:39:03.874Z,22.39
2018-04-08T08:39:44.626Z,22.41
2018-04-08T08:40:24.731Z,22.42
2018-04-08T08:41:05.343Z,22.42
2018-04-08T08:41:45.674Z,22.44
2018-04-08T08:42:26.015Z,22.49
2018-04-08T08:43:06.431Z,22.64
2018-04-08T08:43:46.865Z,22.76
2018-04-08T08:44:27.256Z,22.84
2018-04-08T08:45:07.705Z,23.01
2018-04-08T08:45:48.100Z,23.16
2018-04-08T08:46:28.501Z,23.26
2018-04-08T08:47:08.900Z,23.42
2018-04-08T08:47:49.324Z,23.64
2018-04-08T08:48:29.798Z,23.77
2018-04-08T08:49:10.235Z,23.92
2018-04-08T08:49:50.653Z,24.06
2018-04-08T08:50:31.105Z,24.18
2018-04-08T08:51:11.471Z,24.41
2018-04-08T08:51:51.944Z,24.56
2018-04-08T08:52:32.532Z,24.6
2018-04-08T08:53:12.816Z,24.55
2018-04-08T08:53:53.221Z,24.7
2018-04-08T08:54:33.652Z,24.82
2018-04-08T08:55:14.070Z,24.75
2018-04-08T08:55:54.541Z,24.56
2018-04-08T08:56:35.063Z,24.41
2018-04-08T08:57:15.458Z,24.24
2018-04-08T08:57:55.868Z,24.14
2018-04-08T08:58:36.273Z,24.06
2018-04-08T08:59:16.693Z,24.05
2018-04-08T08:59:57.072Z,24.08
2018-04-08T09:00:37.552Z,24.08
2018-04-08T09:01:17.948Z,24.09
2018-04-08T09:01:58.351Z,24.18
2018-04-08T09:02:38.766Z,24.23
2018-04-08T09:03:19.274Z,24.16
2018-04-08T09:03:59.758Z,24.09
2018-04-08T09:04:40.161Z,24.18
2018-04-08T09:06:33.056Z,24.3
2018-04-08T09:07:13.075Z,24.39
2018-04-08T09:07:53.571Z,24.42
2018-04-08T09:08:33.922Z,24.29
2018-04-08T09:09:14.368Z,24.21
2018-04-08T09:09:54.782Z,24.14
2018-04-08T09:10:35.228Z,23.96
2018-04-08T09:11:15.712Z,23.97
2018-04-08T09:11:56.102Z,24.06
2018-04-08T09:12:36.517Z,24.12
2018-04-08T09:13:16.924Z,24.36
2018-04-08T09:13:57.372Z,24.37
2018-04-08T09:14:37.785Z,24.51
2018-04-08T09:15:18.215Z,24.63
2018-04-08T09:15:58.587Z,24.77
2018-04-08T09:16:38.983Z,24.82
2018-04-08T09:17:19.380Z,24.7
2018-04-08T09:17:59.852Z,24.61
2018-04-08T09:18:40.269Z,24.52
2018-04-08T09:19:20.606Z,24.39
2018-04-08T09:20:01.007Z,24.44
2018-04-08T09:20:42.135Z,24.45
2018-04-08T09:21:22.550Z,24.52
2018-04-08T09:22:02.950Z,24.63
2018-04-08T09:22:43.370Z,24.83
2018-04-08T09:23:23.781Z,25.08
2018-04-08T09:24:04.540Z,25.12
2018-04-08T09:24:44.740Z,25.09
2018-04-08T09:25:25.133Z,25.08
2018-04-08T09:26:05.546Z,24.93
2018-04-08T09:26:46.020Z,24.67
2018-04-08T09:27:26.404Z,24.7
2018-04-08T09:28:06.801Z,24.64
2018-04-08T09:28:47.212Z,24.7
2018-04-08T09:29:27.678Z,24.89
2018-04-08T09:30:08.074Z,25.07
2018-04-08T09:30:48.587Z,25.34
2018-04-08T09:31:28.899Z,25.36
2018-04-08T09:32:09.404Z,25.36
2018-04-08T09:32:49.790Z,25.42
2018-04-08T09:33:30.563Z,25.46
2018-04-08T09:34:10.940Z,25.41
2018-04-08T09:34:51.393Z,25.49
2018-04-08T09:35:31.795Z,25.63
2018-04-08T09:36:12.232Z,25.76
2018-04-08T09:36:52.580Z,25.96
2018-04-08T09:37:33.000Z,26
2018-04-08T09:39:24.533Z,26.12
2018-04-08T09:40:05.536Z,26.01
2018-04-08T09:40:45.920Z,25.94
2018-04-08T09:41:26.344Z,26.06
2018-04-08T09:42:06.752Z,26.2
2018-04-08T09:43:45.979Z,26.35
2018-04-08T09:44:30.807Z,26.44
2018-04-08T09:45:11.222Z,26.49
2018-04-08T09:45:51.648Z,26.57
2018-04-08T09:46:32.036Z,26.64
2018-04-08T09:47:12.460Z,26.84
2018-04-08T09:47:52.898Z,27.03
2018-04-08T09:48:33.352Z,27.24
2018-04-08T09:49:13.715Z,27.43
2018-04-08T09:49:54.121Z,27.61
2018-04-08T09:50:34.545Z,27.55
2018-04-08T09:52:23.409Z,27.84
2018-04-08T09:54:22.453Z,28.21
2018-04-08T09:55:07.124Z,28.21
2018-04-08T09:55:46.613Z,28.23
2018-04-08T09:57:46.173Z,28.21
2018-04-08T09:58:34.590Z,28.25
2018-04-08T09:59:14.170Z,28.36
2018-04-08T09:59:54.545Z,28.62
2018-04-08T10:00:34.990Z,28.58
2018-04-08T10:01:15.426Z,28.62
2018-04-08T10:01:55.877Z,28.55
2018-04-08T10:02:36.285Z,28.46
2018-04-08T10:03:16.714Z,28.46
2018-04-08T10:41:49.976Z,31.04
2018-04-08T10:42:29.508Z,31.12
2018-04-08T10:43:09.942Z,31.15
2018-04-08T10:43:50.380Z,31.13
2018-04-08T10:44:30.822Z,31.23
2018-04-08T10:45:11.236Z,31.27
2018-04-08T10:45:51.679Z,31.18
2018-04-08T10:46:32.126Z,31.18
2018-04-08T10:47:12.530Z,31.15
2018-04-08T10:47:52.970Z,31.2
2018-04-08T10:48:33.356Z,31.12
2018-04-08T10:49:13.771Z,31.07
2018-04-08T10:49:54.194Z,31.16
2018-04-08T10:50:34.816Z,31.12
2018-04-08T10:51:15.039Z,30.98
2018-04-08T10:51:55.472Z,31.05
2018-04-08T10:52:36.009Z,31.04
2018-04-08T10:53:16.329Z,31.1